sensor_id;sensor_type;location;lat;lon;timestamp;pressure;altitude;pressure_sealevel;temperature
24278;BMP280;12394;42.692;23.314;2023-07-29T00:00:39;94880.44;;;20.83
24278;BMP280;12394;42.692;23.314;2023-07-29T00:03:05;94893.00;;;20.82
24278;BMP280;12394;42.692;23.314;2023-07-29T00:05:30;94887.13;;;20.78
24278;BMP280;12394;42.692;23.314;2023-07-29T00:07:56;94893.78;;;20.74
24278;BMP280;12394;42.692;23.314;2023-07-29T00:10:21;94885.56;;;20.63
24278;BMP280;12394;42.692;23.314;2023-07-29T00:12:47;94888.09;;;20.66
24278;BMP280;12394;42.692;23.314;2023-07-29T00:15:12;94894.47;;;20.60
24278;BMP280;12394;42.692;23.314;2023-07-29T00:17:38;94886.22;;;20.58
24278;BMP280;12394;42.692;23.314;2023-07-29T00:20:04;94888.59;;;20.56
24278;BMP280;12394;42.692;23.314;2023-07-29T00:22:30;94893.16;;;20.55
24278;BMP280;12394;42.692;23.314;2023-07-29T00:24:55;94871.94;;;20.46
24278;BMP280;12394;42.692;23.314;2023-07-29T00:27:22;94875.91;;;20.51
24278;BMP280;12394;42.692;23.314;2023-07-29T00:29:48;94888.00;;;20.52
24278;BMP280;12394;42.692;23.314;2023-07-29T00:32:13;94879.47;;;20.48
24278;BMP280;12394;42.692;23.314;2023-07-29T00:34:39;94882.75;;;20.42
24278;BMP280;12394;42.692;23.314;2023-07-29T00:37:04;94880.09;;;20.42
24278;BMP280;12394;42.692;23.314;2023-07-29T00:39:34;94884.84;;;20.38
24278;BMP280;12394;42.692;23.314;2023-07-29T00:41:59;94888.09;;;20.33
24278;BMP280;12394;42.692;23.314;2023-07-29T00:44:25;94879.22;;;20.27
24278;BMP280;12394;42.692;23.314;2023-07-29T00:46:52;94877.47;;;20.24
24278;BMP280;12394;42.692;23.314;2023-07-29T00:49:19;94845.38;;;20.04
24278;BMP280;12394;42.692;23.314;2023-07-29T00:51:45;94874.53;;;20.22
24278;BMP280;12394;42.692;23.314;2023-07-29T00:54:10;94866.91;;;20.15
24278;BMP280;12394;42.692;23.314;2023-07-29T00:56:36;94880.31;;;20.21
24278;BMP280;12394;42.692;23.314;2023-07-29T00:59:02;94864.72;;;20.05
24278;BMP280;12394;42.692;23.314;2023-07-29T01:01:28;94868.97;;;20.11
24278;BMP280;12394;42.692;23.314;2023-07-29T01:03:54;94868.84;;;20.06
24278;BMP280;12394;42.692;23.314;2023-07-29T01:06:49;94845.88;;;19.93
24278;BMP280;12394;42.692;23.314;2023-07-29T01:12:33;94870.50;;;20.03
24278;BMP280;12394;42.692;23.314;2023-07-29T01:15:10;94876.09;;;19.96
24278;BMP280;12394;42.692;23.314;2023-07-29T01:17:42;94866.09;;;19.91
24278;BMP280;12394;42.692;23.314;2023-07-29T01:20:18;94852.97;;;19.87
24278;BMP280;12394;42.692;23.314;2023-07-29T01:22:46;94858.59;;;19.89
24278;BMP280;12394;42.692;23.314;2023-07-29T01:25:12;94872.13;;;19.91
24278;BMP280;12394;42.692;23.314;2023-07-29T01:27:38;94869.34;;;19.86
24278;BMP280;12394;42.692;23.314;2023-07-29T01:30:04;94871.13;;;19.89
24278;BMP280;12394;42.692;23.314;2023-07-29T01:32:41;94845.94;;;19.75
24278;BMP280;12394;42.692;23.314;2023-07-29T01:37:53;94853.44;;;19.77
24278;BMP280;12394;42.692;23.314;2023-07-29T01:40:26;94862.75;;;19.72
24278;BMP280;12394;42.692;23.314;2023-07-29T01:42:52;94871.16;;;19.80
24278;BMP280;12394;42.692;23.314;2023-07-29T01:45:17;94869.50;;;19.82
24278;BMP280;12394;42.692;23.314;2023-07-29T01:47:43;94869.06;;;19.84
24278;BMP280;12394;42.692;23.314;2023-07-29T01:50:09;94874.09;;;19.82
24278;BMP280;12394;42.692;23.314;2023-07-29T01:52:53;94874.97;;;19.79
24278;BMP280;12394;42.692;23.314;2023-07-29T01:55:18;94872.63;;;19.72
24278;BMP280;12394;42.692;23.314;2023-07-29T01:57:44;94857.34;;;19.58
24278;BMP280;12394;42.692;23.314;2023-07-29T02:00:10;94877.69;;;19.61
24278;BMP280;12394;42.692;23.314;2023-07-29T02:02:35;94875.03;;;19.61
24278;BMP280;12394;42.692;23.314;2023-07-29T02:05:01;94872.66;;;19.53
24278;BMP280;12394;42.692;23.314;2023-07-29T02:07:26;94872.97;;;19.46
24278;BMP280;12394;42.692;23.314;2023-07-29T02:09:52;94878.28;;;19.46
24278;BMP280;12394;42.692;23.314;2023-07-29T02:12:17;94881.81;;;19.52
24278;BMP280;12394;42.692;23.314;2023-07-29T02:14:42;94876.78;;;19.54
24278;BMP280;12394;42.692;23.314;2023-07-29T02:17:08;94870.63;;;19.48
24278;BMP280;12394;42.692;23.314;2023-07-29T02:19:34;94883.16;;;19.48
24278;BMP280;12394;42.692;23.314;2023-07-29T02:22:00;94884.50;;;19.43
24278;BMP280;12394;42.692;23.314;2023-07-29T02:24:25;94889.19;;;19.48
24278;BMP280;12394;42.692;23.314;2023-07-29T02:26:51;94885.06;;;19.47
24278;BMP280;12394;42.692;23.314;2023-07-29T02:29:16;94886.06;;;19.41
24278;BMP280;12394;42.692;23.314;2023-07-29T02:31:41;94879.44;;;19.36
24278;BMP280;12394;42.692;23.314;2023-07-29T02:34:09;94875.03;;;19.33
24278;BMP280;12394;42.692;23.314;2023-07-29T02:36:34;94875.03;;;19.33
24278;BMP280;12394;42.692;23.314;2023-07-29T02:39:00;94874.28;;;19.33
24278;BMP280;12394;42.692;23.314;2023-07-29T02:41:25;94867.97;;;19.21
24278;BMP280;12394;42.692;23.314;2023-07-29T02:43:51;94877.53;;;19.28
24278;BMP280;12394;42.692;23.314;2023-07-29T02:46:16;94856.91;;;19.14
24278;BMP280;12394;42.692;23.314;2023-07-29T02:48:43;94883.28;;;19.26
24278;BMP280;12394;42.692;23.314;2023-07-29T02:51:09;94885.91;;;19.26
24278;BMP280;12394;42.692;23.314;2023-07-29T02:53:34;94893.28;;;19.13
24278;BMP280;12394;42.692;23.314;2023-07-29T02:56:02;94869.44;;;19.13
24278;BMP280;12394;42.692;23.314;2023-07-29T02:58:28;94881.94;;;19.13
24278;BMP280;12394;42.692;23.314;2023-07-29T03:01:00;94890.38;;;19.11
24278;BMP280;12394;42.692;23.314;2023-07-29T03:03:26;94883.00;;;19.06
24278;BMP280;12394;42.692;23.314;2023-07-29T03:06:00;94893.28;;;19.04
24278;BMP280;12394;42.692;23.314;2023-07-29T03:08:26;94898.59;;;19.04
24278;BMP280;12394;42.692;23.314;2023-07-29T03:10:52;94904.47;;;18.99
24278;BMP280;12394;42.692;23.314;2023-07-29T03:13:17;94899.63;;;18.97
24278;BMP280;12394;42.692;23.314;2023-07-29T03:15:42;94907.75;;;18.94
24278;BMP280;12394;42.692;23.314;2023-07-29T03:18:08;94910.38;;;18.85
24278;BMP280;12394;42.692;23.314;2023-07-29T03:20:33;94896.22;;;18.79
24278;BMP280;12394;42.692;23.314;2023-07-29T03:22:58;94900.78;;;18.78
24278;BMP280;12394;42.692;23.314;2023-07-29T03:25:24;94908.91;;;18.84
24278;BMP280;12394;42.692;23.314;2023-07-29T03:27:49;94908.00;;;18.87
24278;BMP280;12394;42.692;23.314;2023-07-29T03:30:15;94908.44;;;18.85
24278;BMP280;12394;42.692;23.314;2023-07-29T03:32:43;94910.38;;;18.85
24278;BMP280;12394;42.692;23.314;2023-07-29T03:35:09;94903.28;;;18.82
24278;BMP280;12394;42.692;23.314;2023-07-29T03:37:35;94903.59;;;18.84
24278;BMP280;12394;42.692;23.314;2023-07-29T03:40:00;94907.72;;;18.85
24278;BMP280;12394;42.692;23.314;2023-07-29T03:42:26;94893.56;;;18.79
24278;BMP280;12394;42.692;23.314;2023-07-29T03:44:51;94903.59;;;18.84
24278;BMP280;12394;42.692;23.314;2023-07-29T03:47:16;94903.75;;;18.89
24278;BMP280;12394;42.692;23.314;2023-07-29T03:49:42;94905.66;;;18.89
24278;BMP280;12394;42.692;23.314;2023-07-29T03:52:07;94908.91;;;18.93
24278;BMP280;12394;42.692;23.314;2023-07-29T03:54:32;94910.38;;;18.94
24278;BMP280;12394;42.692;23.314;2023-07-29T03:56:58;94907.44;;;18.92
24278;BMP280;12394;42.692;23.314;2023-07-29T03:59:23;94901.97;;;18.86
24278;BMP280;12394;42.692;23.314;2023-07-29T04:01:49;94901.97;;;18.86
24278;BMP280;12394;42.692;23.314;2023-07-29T04:04:14;94908.59;;;18.91
24278;BMP280;12394;42.692;23.314;2023-07-29T04:06:40;94911.25;;;19.00
24278;BMP280;12394;42.692;23.314;2023-07-29T04:09:05;94918.34;;;19.03
24278;BMP280;12394;42.692;23.314;2023-07-29T04:11:31;94921.59;;;19.07
24278;BMP280;12394;42.692;23.314;2023-07-29T04:13:56;94919.97;;;19.09
24278;BMP280;12394;42.692;23.314;2023-07-29T04:16:21;94916.88;;;19.11
24278;BMP280;12394;42.692;23.314;2023-07-29T04:18:47;94918.94;;;19.16
24278;BMP280;12394;42.692;23.314;2023-07-29T04:21:13;94912.31;;;19.21
24278;BMP280;12394;42.692;23.314;2023-07-29T04:23:38;94904.22;;;19.24
24278;BMP280;12394;42.692;23.314;2023-07-29T04:26:04;94913.22;;;19.45
24278;BMP280;12394;42.692;23.314;2023-07-29T04:28:29;94914.81;;;19.42
24278;BMP280;12394;42.692;23.314;2023-07-29T04:30:54;94911.88;;;19.49
24278;BMP280;12394;42.692;23.314;2023-07-29T04:33:20;94903.06;;;19.43
24278;BMP280;12394;42.692;23.314;2023-07-29T04:35:45;94917.75;;;19.63
24278;BMP280;12394;42.692;23.314;2023-07-29T04:38:11;94915.41;;;19.74
24278;BMP280;12394;42.692;23.314;2023-07-29T04:40:36;94911.84;;;19.77
24278;BMP280;12394;42.692;23.314;2023-07-29T04:43:02;94918.34;;;19.85
24278;BMP280;12394;42.692;23.314;2023-07-29T04:45:28;94910.41;;;19.76
24278;BMP280;12394;42.692;23.314;2023-07-29T04:47:54;94916.53;;;19.91
24278;BMP280;12394;42.692;23.314;2023-07-29T04:50:20;94921.81;;;20.00
24278;BMP280;12394;42.692;23.314;2023-07-29T04:52:45;94923.84;;;20.14
24278;BMP280;12394;42.692;23.314;2023-07-29T04:55:10;94927.06;;;20.27
24278;BMP280;12394;42.692;23.314;2023-07-29T04:57:36;94929.09;;;20.41
24278;BMP280;12394;42.692;23.314;2023-07-29T05:00:02;94933.47;;;20.54
24278;BMP280;12394;42.692;23.314;2023-07-29T05:02:28;94941.31;;;20.57
24278;BMP280;12394;42.692;23.314;2023-07-29T05:04:53;94929.63;;;20.55
24278;BMP280;12394;42.692;23.314;2023-07-29T05:07:19;94941.81;;;20.70
24278;BMP280;12394;42.692;23.314;2023-07-29T05:09:44;94937.06;;;20.74
24278;BMP280;12394;42.692;23.314;2023-07-29T05:12:09;94945.84;;;20.66
24278;BMP280;12394;42.692;23.314;2023-07-29T05:14:35;94937.25;;;20.71
24278;BMP280;12394;42.692;23.314;2023-07-29T05:17:00;94950.75;;;20.82
24278;BMP280;12394;42.692;23.314;2023-07-29T05:19:26;94941.56;;;20.92
24278;BMP280;12394;42.692;23.314;2023-07-29T05:21:52;94940.31;;;21.02
24278;BMP280;12394;42.692;23.314;2023-07-29T05:24:17;94937.38;;;21.00
24278;BMP280;12394;42.692;23.314;2023-07-29T05:26:42;94943.94;;;21.14
24278;BMP280;12394;42.692;23.314;2023-07-29T05:29:08;94951.03;;;21.17
24278;BMP280;12394;42.692;23.314;2023-07-29T05:31:33;94950.56;;;21.18
24278;BMP280;12394;42.692;23.314;2023-07-29T05:33:59;94949.59;;;21.30
24278;BMP280;12394;42.692;23.314;2023-07-29T05:36:24;94954.78;;;21.49
24278;BMP280;12394;42.692;23.314;2023-07-29T05:38:51;94945.59;;;21.50
24278;BMP280;12394;42.692;23.314;2023-07-29T05:41:17;94966.13;;;21.73
24278;BMP280;12394;42.692;23.314;2023-07-29T05:43:42;94961.97;;;21.72
24278;BMP280;12394;42.692;23.314;2023-07-29T05:46:09;94960.63;;;21.77
24278;BMP280;12394;42.692;23.314;2023-07-29T05:48:35;94967.97;;;21.82
24278;BMP280;12394;42.692;23.314;2023-07-29T05:51:00;94967.97;;;21.82
24278;BMP280;12394;42.692;23.314;2023-07-29T05:53:25;94959.16;;;21.90
24278;BMP280;12394;42.692;23.314;2023-07-29T05:55:51;94961.94;;;21.96
24278;BMP280;12394;42.692;23.314;2023-07-29T05:58:16;94963.28;;;21.91
24278;BMP280;12394;42.692;23.314;2023-07-29T06:00:42;94944.38;;;21.89
24278;BMP280;12394;42.692;23.314;2023-07-29T06:03:07;94964.06;;;22.06
24278;BMP280;12394;42.692;23.314;2023-07-29T06:05:33;94956.38;;;21.94
24278;BMP280;12394;42.692;23.314;2023-07-29T06:07:58;94957.72;;;22.04
24278;BMP280;12394;42.692;23.314;2023-07-29T06:10:24;94955.88;;;22.10
24278;BMP280;12394;42.692;23.314;2023-07-29T06:12:49;94955.41;;;22.26
24278;BMP280;12394;42.692;23.314;2023-07-29T06:15:14;94953.56;;;22.47
24278;BMP280;12394;42.692;23.314;2023-07-29T06:17:40;94947.22;;;22.44
24278;BMP280;12394;42.692;23.314;2023-07-29T06:20:06;94949.50;;;22.51
24278;BMP280;12394;42.692;23.314;2023-07-29T06:22:32;94947.06;;;22.68
24278;BMP280;12394;42.692;23.314;2023-07-29T06:24:57;94940.38;;;22.73
24278;BMP280;12394;42.692;23.314;2023-07-29T06:27:23;94945.22;;;22.89
24278;BMP280;12394;42.692;23.314;2023-07-29T06:29:50;94948.94;;;22.97
24278;BMP280;12394;42.692;23.314;2023-07-29T06:32:15;94947.34;;;23.05
24278;BMP280;12394;42.692;23.314;2023-07-29T06:34:41;94934.09;;;23.11
24278;BMP280;12394;42.692;23.314;2023-07-29T06:37:06;94937.34;;;23.00
24278;BMP280;12394;42.692;23.314;2023-07-29T06:39:31;94937.69;;;23.08
24278;BMP280;12394;42.692;23.314;2023-07-29T06:41:57;94931.81;;;23.24
24278;BMP280;12394;42.692;23.314;2023-07-29T06:44:23;94926.78;;;23.31
24278;BMP280;12394;42.692;23.314;2023-07-29T06:46:48;94917.91;;;23.40
24278;BMP280;12394;42.692;23.314;2023-07-29T06:49:13;94923.19;;;23.55
24278;BMP280;12394;42.692;23.314;2023-07-29T06:51:39;94919.38;;;23.61
24278;BMP280;12394;42.692;23.314;2023-07-29T06:54:04;94922.19;;;23.78
24278;BMP280;12394;42.692;23.314;2023-07-29T06:56:29;94924.25;;;23.88
24278;BMP280;12394;42.692;23.314;2023-07-29T06:58:55;94930.72;;;24.08
24278;BMP280;12394;42.692;23.314;2023-07-29T07:01:20;94924.63;;;24.33
24278;BMP280;12394;42.692;23.314;2023-07-29T07:03:46;94930.88;;;24.56
24278;BMP280;12394;42.692;23.314;2023-07-29T07:06:11;94918.09;;;24.76
24278;BMP280;12394;42.692;23.314;2023-07-29T07:08:37;94931.81;;;24.90
24278;BMP280;12394;42.692;23.314;2023-07-29T07:11:02;94926.00;;;24.97
24278;BMP280;12394;42.692;23.314;2023-07-29T07:13:27;94937.00;;;25.04
24278;BMP280;12394;42.692;23.314;2023-07-29T07:15:56;94928.31;;;25.20
24278;BMP280;12394;42.692;23.314;2023-07-29T07:18:22;94931.53;;;25.41
24278;BMP280;12394;42.692;23.314;2023-07-29T07:20:51;94920.59;;;25.50
24278;BMP280;12394;42.692;23.314;2023-07-29T07:23:18;94922.63;;;25.72
24278;BMP280;12394;42.692;23.314;2023-07-29T07:25:43;94922.91;;;25.91
24278;BMP280;12394;42.692;23.314;2023-07-29T07:28:10;94926.34;;;26.30
24278;BMP280;12394;42.692;23.314;2023-07-29T07:30:39;94924.59;;;26.66
24278;BMP280;12394;42.692;23.314;2023-07-29T07:33:05;94923.31;;;27.01
24278;BMP280;12394;42.692;23.314;2023-07-29T07:35:31;94908.13;;;27.14
24278;BMP280;12394;42.692;23.314;2023-07-29T07:37:56;94923.28;;;27.69
24278;BMP280;12394;42.692;23.314;2023-07-29T07:40:22;94906.19;;;28.02
24278;BMP280;12394;42.692;23.314;2023-07-29T07:42:47;94903.47;;;28.38
24278;BMP280;12394;42.692;23.314;2023-07-29T07:45:12;94914.91;;;28.68
24278;BMP280;12394;42.692;23.314;2023-07-29T07:47:38;94915.22;;;28.89
24278;BMP280;12394;42.692;23.314;2023-07-29T07:50:04;94925.16;;;29.42
24278;BMP280;12394;42.692;23.314;2023-07-29T07:52:29;94915.78;;;29.81
24278;BMP280;12394;42.692;23.314;2023-07-29T07:54:55;94921.44;;;30.15
24278;BMP280;12394;42.692;23.314;2023-07-29T07:57:21;94922.19;;;30.73
24278;BMP280;12394;42.692;23.314;2023-07-29T07:59:47;94925.41;;;31.38
24278;BMP280;12394;42.692;23.314;2023-07-29T08:02:12;94925.53;;;31.79
24278;BMP280;12394;42.692;23.314;2023-07-29T08:04:38;94927.94;;;32.45
24278;BMP280;12394;42.692;23.314;2023-07-29T08:07:03;94925.03;;;33.20
24278;BMP280;12394;42.692;23.314;2023-07-29T08:09:29;94919.38;;;34.35
24278;BMP280;12394;42.692;23.314;2023-07-29T08:11:54;94899.72;;;35.05
24278;BMP280;12394;42.692;23.314;2023-07-29T08:14:20;94915.38;;;35.45
24278;BMP280;12394;42.692;23.314;2023-07-29T08:16:45;94925.66;;;35.69
24278;BMP280;12394;42.692;23.314;2023-07-29T08:19:11;94921.94;;;35.82
24278;BMP280;12394;42.692;23.314;2023-07-29T08:21:36;94927.00;;;36.42
24278;BMP280;12394;42.692;23.314;2023-07-29T08:24:01;94927.56;;;36.58
24278;BMP280;12394;42.692;23.314;2023-07-29T08:26:27;94921.22;;;36.38
24278;BMP280;12394;42.692;23.314;2023-07-29T08:28:53;94916.66;;;36.83
24278;BMP280;12394;42.692;23.314;2023-07-29T08:31:18;94918.25;;;37.55
24278;BMP280;12394;42.692;23.314;2023-07-29T08:33:43;94909.22;;;37.79
24278;BMP280;12394;42.692;23.314;2023-07-29T08:36:09;94920.50;;;38.29
24278;BMP280;12394;42.692;23.314;2023-07-29T08:38:34;94916.34;;;39.03
24278;BMP280;12394;42.692;23.314;2023-07-29T08:43:52;94899.50;;;39.45
24278;BMP280;12394;42.692;23.314;2023-07-29T08:46:19;94907.09;;;39.66
24278;BMP280;12394;42.692;23.314;2023-07-29T08:48:45;94899.75;;;40.18
24278;BMP280;12394;42.692;23.314;2023-07-29T08:51:11;94887.00;;;40.54
24278;BMP280;12394;42.692;23.314;2023-07-29T08:53:38;94894.28;;;41.46
24278;BMP280;12394;42.692;23.314;2023-07-29T08:56:05;94899.34;;;41.28
24278;BMP280;12394;42.692;23.314;2023-07-29T08:58:31;94887.38;;;41.56
24278;BMP280;12394;42.692;23.314;2023-07-29T09:00:57;94891.03;;;42.40
24278;BMP280;12394;42.692;23.314;2023-07-29T09:03:22;94894.38;;;42.50
24278;BMP280;12394;42.692;23.314;2023-07-29T09:05:48;94882.66;;;42.50
24278;BMP280;12394;42.692;23.314;2023-07-29T09:08:13;94878.06;;;42.78
24278;BMP280;12394;42.692;23.314;2023-07-29T09:10:40;94881.50;;;43.27
24278;BMP280;12394;42.692;23.314;2023-07-29T09:13:06;94870.94;;;43.74
24278;BMP280;12394;42.692;23.314;2023-07-29T09:15:34;94854.47;;;44.01
24278;BMP280;12394;42.692;23.314;2023-07-29T09:18:09;94879.56;;;44.07
24278;BMP280;12394;42.692;23.314;2023-07-29T09:20:35;94862.16;;;44.87
24278;BMP280;12394;42.692;23.314;2023-07-29T09:23:00;94861.59;;;47.27
24278;BMP280;12394;42.692;23.314;2023-07-29T09:25:27;94853.31;;;46.59
24278;BMP280;12394;42.692;23.314;2023-07-29T09:27:58;94858.19;;;46.27
24278;BMP280;12394;42.692;23.314;2023-07-29T09:30:24;94856.03;;;46.74
24278;BMP280;12394;42.692;23.314;2023-07-29T09:32:57;94844.22;;;46.74
24278;BMP280;12394;42.692;23.314;2023-07-29T09:35:27;94851.13;;;47.08
24278;BMP280;12394;42.692;23.314;2023-07-29T09:37:53;94857.69;;;46.81
24278;BMP280;12394;42.692;23.314;2023-07-29T09:40:19;94842.56;;;48.54
24278;BMP280;12394;42.692;23.314;2023-07-29T09:42:52;94820.53;;;48.19
24278;BMP280;12394;42.692;23.314;2023-07-29T09:45:23;94832.69;;;47.90
24278;BMP280;12394;42.692;23.314;2023-07-29T09:47:49;94833.09;;;48.00
24278;BMP280;12394;42.692;23.314;2023-07-29T09:50:15;94832.16;;;48.33
24278;BMP280;12394;42.692;23.314;2023-07-29T09:52:41;94827.75;;;49.58
24278;BMP280;12394;42.692;23.314;2023-07-29T09:55:07;94824.00;;;47.97
24278;BMP280;12394;42.692;23.314;2023-07-29T09:57:33;94826.53;;;47.91
24278;BMP280;12394;42.692;23.314;2023-07-29T09:59:59;94825.44;;;48.62
24278;BMP280;12394;42.692;23.314;2023-07-29T10:02:24;94826.44;;;48.29
24278;BMP280;12394;42.692;23.314;2023-07-29T10:04:54;94827.09;;;48.07
24278;BMP280;12394;42.692;23.314;2023-07-29T10:07:21;94819.84;;;48.59
24278;BMP280;12394;42.692;23.314;2023-07-29T10:09:47;94816.03;;;48.92
24278;BMP280;12394;42.692;23.314;2023-07-29T10:12:16;94822.28;;;48.49
24278;BMP280;12394;42.692;23.314;2023-07-29T10:14:42;94814.25;;;48.79
24278;BMP280;12394;42.692;23.314;2023-07-29T10:17:08;94811.75;;;49.35
24278;BMP280;12394;42.692;23.314;2023-07-29T10:19:34;94813.84;;;49.58
24278;BMP280;12394;42.692;23.314;2023-07-29T10:22:03;94807.44;;;49.30
24278;BMP280;12394;42.692;23.314;2023-07-29T10:24:32;94796.00;;;49.41
24278;BMP280;12394;42.692;23.314;2023-07-29T10:27:00;94787.56;;;48.29
24278;BMP280;12394;42.692;23.314;2023-07-29T10:29:30;94776.75;;;48.17
24278;BMP280;12394;42.692;23.314;2023-07-29T10:32:02;94783.47;;;47.90
24278;BMP280;12394;42.692;23.314;2023-07-29T10:34:30;94783.72;;;47.59
24278;BMP280;12394;42.692;23.314;2023-07-29T10:36:56;94782.09;;;47.14
24278;BMP280;12394;42.692;23.314;2023-07-29T10:39:24;94775.19;;;47.53
24278;BMP280;12394;42.692;23.314;2023-07-29T10:42:01;94776.00;;;47.75
24278;BMP280;12394;42.692;23.314;2023-07-29T10:47:25;94771.69;;;44.71
24278;BMP280;12394;42.692;23.314;2023-07-29T10:49:57;94765.56;;;43.23
24278;BMP280;12394;42.692;23.314;2023-07-29T10:52:40;94761.22;;;41.84
24278;BMP280;12394;42.692;23.314;2023-07-29T10:57:48;94760.47;;;39.74
24278;BMP280;12394;42.692;23.314;2023-07-29T11:00:15;94751.59;;;38.95
24278;BMP280;12394;42.692;23.314;2023-07-29T11:02:41;94748.75;;;38.45
24278;BMP280;12394;42.692;23.314;2023-07-29T11:05:17;94741.28;;;37.70
24278;BMP280;12394;42.692;23.314;2023-07-29T11:07:44;94744.44;;;37.40
24278;BMP280;12394;42.692;23.314;2023-07-29T11:10:11;94734.53;;;36.91
24278;BMP280;12394;42.692;23.314;2023-07-29T11:12:42;94741.16;;;36.71
24278;BMP280;12394;42.692;23.314;2023-07-29T11:17:39;94735.16;;;35.79
24278;BMP280;12394;42.692;23.314;2023-07-29T11:20:05;94738.34;;;35.43
24278;BMP280;12394;42.692;23.314;2023-07-29T11:22:33;94728.53;;;35.07
24278;BMP280;12394;42.692;23.314;2023-07-29T11:24:58;94738.41;;;34.95
24278;BMP280;12394;42.692;23.314;2023-07-29T11:27:24;94725.13;;;34.67
24278;BMP280;12394;42.692;23.314;2023-07-29T11:29:49;94742.38;;;34.54
24278;BMP280;12394;42.692;23.314;2023-07-29T11:32:15;94732.56;;;34.59
24278;BMP280;12394;42.692;23.314;2023-07-29T11:34:41;94726.97;;;34.49
24278;BMP280;12394;42.692;23.314;2023-07-29T11:37:09;94732.09;;;34.37
24278;BMP280;12394;42.692;23.314;2023-07-29T11:39:40;94729.25;;;34.20
24278;BMP280;12394;42.692;23.314;2023-07-29T11:42:06;94721.47;;;34.09
24278;BMP280;12394;42.692;23.314;2023-07-29T11:44:32;94724.91;;;34.10
24278;BMP280;12394;42.692;23.314;2023-07-29T11:46:57;94718.22;;;33.95
24278;BMP280;12394;42.692;23.314;2023-07-29T11:49:22;94726.00;;;33.99
24278;BMP280;12394;42.692;23.314;2023-07-29T11:51:48;94714.25;;;33.97
24278;BMP280;12394;42.692;23.314;2023-07-29T11:54:15;94709.53;;;33.97
24278;BMP280;12394;42.692;23.314;2023-07-29T11:56:41;94706.84;;;33.97
24278;BMP280;12394;42.692;23.314;2023-07-29T11:59:06;94702.81;;;33.98
24278;BMP280;12394;42.692;23.314;2023-07-29T12:01:32;94715.50;;;34.03
24278;BMP280;12394;42.692;23.314;2023-07-29T12:03:58;94707.91;;;34.02
24278;BMP280;12394;42.692;23.314;2023-07-29T12:06:25;94702.84;;;33.75
24278;BMP280;12394;42.692;23.314;2023-07-29T12:08:51;94689.31;;;33.68
24278;BMP280;12394;42.692;23.314;2023-07-29T12:11:17;94681.88;;;33.76
24278;BMP280;12394;42.692;23.314;2023-07-29T12:13:43;94689.09;;;33.81
24278;BMP280;12394;42.692;23.314;2023-07-29T12:16:08;94692.38;;;33.79
24278;BMP280;12394;42.692;23.314;2023-07-29T12:18:34;94690.22;;;33.78
24278;BMP280;12394;42.692;23.314;2023-07-29T12:20:59;94693.28;;;33.67
24278;BMP280;12394;42.692;23.314;2023-07-29T12:23:25;94681.16;;;33.53
24278;BMP280;12394;42.692;23.314;2023-07-29T12:25:58;94687.84;;;33.44
24278;BMP280;12394;42.692;23.314;2023-07-29T12:28:25;94661.78;;;33.26
24278;BMP280;12394;42.692;23.314;2023-07-29T12:30:57;94669.59;;;33.29
24278;BMP280;12394;42.692;23.314;2023-07-29T12:33:31;94670.47;;;33.55
24278;BMP280;12394;42.692;23.314;2023-07-29T12:35:58;94675.53;;;33.50
24278;BMP280;12394;42.692;23.314;2023-07-29T12:38:25;94687.50;;;33.47
24278;BMP280;12394;42.692;23.314;2023-07-29T12:40:51;94665.63;;;33.38
24278;BMP280;12394;42.692;23.314;2023-07-29T12:43:16;94671.03;;;33.45
24278;BMP280;12394;42.692;23.314;2023-07-29T12:45:42;94676.09;;;33.41
24278;BMP280;12394;42.692;23.314;2023-07-29T12:48:09;94680.97;;;33.35
24278;BMP280;12394;42.692;23.314;2023-07-29T12:50:35;94676.09;;;33.41
24278;BMP280;12394;42.692;23.314;2023-07-29T12:53:01;94678.06;;;33.48
24278;BMP280;12394;42.692;23.314;2023-07-29T12:55:26;94676.09;;;33.49
24278;BMP280;12394;42.692;23.314;2023-07-29T12:57:51;94673.75;;;33.61
24278;BMP280;12394;42.692;23.314;2023-07-29T13:00:17;94671.94;;;33.78
24278;BMP280;12394;42.692;23.314;2023-07-29T13:02:42;94674.28;;;33.82
24278;BMP280;12394;42.692;23.314;2023-07-29T13:05:12;94672.63;;;33.86
24278;BMP280;12394;42.692;23.314;2023-07-29T13:07:40;94667.75;;;33.92
24278;BMP280;12394;42.692;23.314;2023-07-29T13:10:07;94675.31;;;33.94
24278;BMP280;12394;42.692;23.314;2023-07-29T13:12:33;94671.75;;;33.84
24278;BMP280;12394;42.692;23.314;2023-07-29T13:14:58;94674.97;;;33.98
24278;BMP280;12394;42.692;23.314;2023-07-29T13:17:24;94671.31;;;34.03
24278;BMP280;12394;42.692;23.314;2023-07-29T13:19:50;94672.78;;;33.96
24278;BMP280;12394;42.692;23.314;2023-07-29T13:22:16;94670.47;;;33.85
24278;BMP280;12394;42.692;23.314;2023-07-29T13:24:41;94659.06;;;33.86
24278;BMP280;12394;42.692;23.314;2023-07-29T13:27:06;94655.47;;;33.84
24278;BMP280;12394;42.692;23.314;2023-07-29T13:29:32;94657.19;;;34.04
24278;BMP280;12394;42.692;23.314;2023-07-29T13:31:57;94658.31;;;34.01
24278;BMP280;12394;42.692;23.314;2023-07-29T13:34:23;94662.63;;;34.04
24278;BMP280;12394;42.692;23.314;2023-07-29T13:36:48;94653.56;;;34.09
24278;BMP280;12394;42.692;23.314;2023-07-29T13:39:14;94651.19;;;34.28
24278;BMP280;12394;42.692;23.314;2023-07-29T13:41:39;94649.19;;;34.21
24278;BMP280;12394;42.692;23.314;2023-07-29T13:44:04;94656.28;;;34.24
24278;BMP280;12394;42.692;23.314;2023-07-29T13:46:30;94650.13;;;34.24
24278;BMP280;12394;42.692;23.314;2023-07-29T13:48:55;94637.81;;;34.15
24278;BMP280;12394;42.692;23.314;2023-07-29T13:51:21;94651.56;;;34.10
24278;BMP280;12394;42.692;23.314;2023-07-29T13:53:46;94644.53;;;33.99
24278;BMP280;12394;42.692;23.314;2023-07-29T13:56:11;94645.69;;;33.88
24278;BMP280;12394;42.692;23.314;2023-07-29T13:58:37;94640.94;;;33.89
24278;BMP280;12394;42.692;23.314;2023-07-29T14:01:02;94622.38;;;33.70
24278;BMP280;12394;42.692;23.314;2023-07-29T14:03:28;94631.75;;;33.77
24278;BMP280;12394;42.692;23.314;2023-07-29T14:05:53;94633.03;;;33.76
24278;BMP280;12394;42.692;23.314;2023-07-29T14:08:19;94634.81;;;33.81